createdAt,value
2018-05-07T00:00:50.451Z,81.70
2018-05-07T00:02:51.417Z,81.80
2018-05-07T00:04:52.383Z,81.80
2018-05-07T00:06:53.372Z,81.90
2018-05-07T00:08:54.314Z,83.20
2018-05-07T00:10:55.310Z,82.40
2018-05-07T00:12:56.318Z,81.90
2018-05-07T00:14:57.246Z,83.50
2018-05-07T00:16:58.201Z,82.70
2018-05-07T00:18:59.164Z,82.30
2018-05-07T00:21:00.143Z,81.40
2018-05-07T00:23:01.107Z,81.80
2018-05-07T00:25:02.859Z,82.90
2018-05-07T00:27:03.850Z,82.80
2018-05-07T00:29:04.855Z,84.00
2018-05-07T00:31:05.783Z,84.00
2018-05-07T00:33:06.748Z,84.70
2018-05-07T00:35:07.716Z,86.00
2018-05-07T00:37:09.484Z,85.10
2018-05-07T00:39:10.425Z,85.10
2018-05-07T00:41:12.131Z,85.00
2018-05-07T00:43:13.158Z,85.00
2018-05-07T00:45:14.046Z,85.40
2018-05-07T00:47:14.974Z,85.50
2018-05-07T00:49:15.955Z,86.00
2018-05-07T00:51:17.641Z,85.10
2018-05-07T00:53:18.585Z,85.10
2018-05-07T00:55:20.269Z,85.30
2018-05-07T00:57:21.203Z,85.30
2018-05-07T00:59:22.177Z,85.90
2018-05-07T01:01:23.777Z,86.30
2018-05-07T01:03:24.723Z,85.80
2018-05-07T01:05:25.673Z,86.70
2018-05-07T01:07:27.344Z,88.30
2018-05-07T01:09:29.079Z,87.20
2018-05-07T01:11:30.023Z,87.20
2018-05-07T01:13:30.974Z,86.60
2018-05-07T01:15:31.923Z,85.80
2018-05-07T01:17:32.876Z,85.80
2018-05-07T01:19:33.821Z,87.60
2018-05-07T01:21:34.751Z,87.30
2018-05-07T01:23:35.702Z,85.10
2018-05-07T01:25:36.675Z,85.70
2018-05-07T01:27:38.374Z,86.60
2018-05-07T01:29:39.478Z,86.40
2018-05-07T01:31:41.288Z,87.40
2018-05-07T01:33:42.295Z,87.30
2018-05-07T01:35:43.313Z,87.40
2018-05-07T01:37:44.242Z,79.80
2018-05-07T01:39:45.170Z,78.80
2018-05-07T01:41:46.926Z,80.30
2018-05-07T01:43:47.873Z,82.80
2018-05-07T01:45:48.803Z,85.00
2018-05-07T01:47:49.794Z,86.10
2018-05-07T01:49:50.790Z,87.30
2018-05-07T01:51:52.473Z,90.30
2018-05-07T01:53:53.431Z,90.30
2018-05-07T01:55:54.355Z,90.80
2018-05-07T01:57:55.321Z,91.50
2018-05-07T01:59:56.290Z,91.60
2018-05-07T02:01:57.237Z,91.70
2018-05-07T02:03:58.177Z,91.70
2018-05-07T02:05:59.258Z,91.80
2018-05-07T02:08:00.212Z,91.60
2018-05-07T02:10:01.935Z,90.50
2018-05-07T02:12:02.971Z,90.50
2018-05-07T02:14:03.959Z,89.30
2018-05-07T02:16:04.887Z,85.40
2018-05-07T02:18:05.844Z,87.90
2018-05-07T02:20:06.809Z,87.90
2018-05-07T02:22:08.496Z,89.20
2018-05-07T02:24:09.458Z,89.10
2018-05-07T02:26:10.385Z,86.00
2018-05-07T02:28:11.321Z,84.50
2018-05-07T02:30:12.258Z,82.50
2018-05-07T02:32:13.941Z,87.90
2018-05-07T02:34:14.931Z,87.90
2018-05-07T02:36:15.882Z,81.90
2018-05-07T02:38:16.826Z,80.70
2018-05-07T02:40:17.839Z,81.70
2018-05-07T02:42:18.765Z,78.10
2018-05-07T02:44:19.736Z,77.90
2018-05-07T02:46:20.706Z,79.00
2018-05-07T02:48:21.645Z,81.20
2018-05-07T02:50:22.628Z,83.40
2018-05-07T02:52:24.322Z,82.70
2018-05-07T02:54:25.290Z,82.70
2018-05-07T02:56:26.204Z,85.60
2018-05-07T02:58:27.169Z,79.80
2018-05-07T03:00:28.134Z,83.50
2018-05-07T03:02:29.099Z,85.40
2018-05-07T03:04:30.044Z,88.00
2018-05-07T03:06:31.750Z,89.70
2018-05-07T03:08:32.717Z,89.50
2018-05-07T03:10:33.672Z,90.70
2018-05-07T03:12:34.633Z,91.10
2018-05-07T03:14:35.598Z,91.10
2018-05-07T03:16:36.549Z,91.20
2018-05-07T03:18:38.257Z,91.20
2018-05-07T03:20:39.237Z,90.80
2018-05-07T03:22:40.184Z,90.30
2018-05-07T03:24:41.156Z,88.60
2018-05-07T03:26:42.112Z,82.40
2018-05-07T03:28:43.078Z,84.00
2018-05-07T03:30:44.108Z,84.20
2018-05-07T03:32:45.047Z,87.10
2018-05-07T03:34:46.727Z,86.40
2018-05-07T03:36:47.655Z,86.40
2018-05-07T03:38:49.405Z,88.50
2018-05-07T03:40:50.330Z,88.50
2018-05-07T03:42:51.290Z,90.00
2018-05-07T03:44:52.991Z,91.70
2018-05-07T03:46:53.922Z,91.70
2018-05-07T03:48:55.609Z,90.90
2018-05-07T03:50:56.558Z,90.90
2018-05-07T03:52:57.519Z,92.10
2018-05-07T03:54:58.441Z,92.40
2018-05-07T03:56:59.381Z,92.70
2018-05-07T03:59:00.313Z,91.40
2018-05-07T04:01:02.009Z,90.10
2018-05-07T04:03:02.946Z,90.10
2018-05-07T04:05:04.004Z,89.50
2018-05-07T04:07:04.940Z,90.90
2018-05-07T04:09:05.872Z,91.70
2018-05-07T04:11:06.801Z,91.50
2018-05-07T04:13:08.487Z,91.80
2018-05-07T04:15:10.139Z,92.30
2018-05-07T04:17:23.474Z,92.30
2018-05-07T04:19:36.813Z,91.70
2018-05-07T04:21:37.752Z,90.90
2018-05-07T04:23:51.870Z,87.40
2018-05-07T04:25:52.804Z,88.40
2018-05-07T04:27:54.501Z,90.60
2018-05-07T04:29:55.417Z,90.60
2018-05-07T04:31:56.343Z,91.30
2018-05-07T04:33:57.298Z,91.90
2018-05-07T04:35:58.248Z,90.30
2018-05-07T04:37:59.182Z,90.00
2018-05-07T04:40:00.138Z,89.40
2018-05-07T04:42:01.086Z,89.40
2018-05-07T04:44:02.035Z,90.60
2018-05-07T04:46:02.983Z,91.20
2018-05-07T04:48:03.959Z,91.20
2018-05-07T04:50:05.637Z,92.10
2018-05-07T04:52:06.603Z,92.00
2018-05-07T04:54:07.527Z,92.40
2018-05-07T04:56:09.210Z,93.30
2018-05-07T04:58:10.150Z,93.60
2018-05-07T05:00:11.101Z,94.60
2018-05-07T05:02:12.039Z,94.40
2018-05-07T05:04:12.964Z,94.30
2018-05-07T05:06:14.659Z,95.20
2018-05-07T05:08:15.594Z,95.20
2018-05-07T05:10:16.551Z,95.10
2018-05-07T05:12:17.476Z,95.60
2018-05-07T05:14:18.413Z,95.60
2018-05-07T05:16:20.086Z,95.50
2018-05-07T05:18:21.018Z,95.50
2018-05-07T05:20:21.956Z,95.10
2018-05-07T05:22:23.641Z,95.50
2018-05-07T05:24:24.582Z,95.50
2018-05-07T05:26:25.525Z,94.30
2018-05-07T05:28:26.451Z,94.50
2018-05-07T05:30:28.121Z,92.60
2018-05-07T05:32:29.789Z,92.40
2018-05-07T05:34:31.495Z,92.90
2018-05-07T05:36:32.428Z,92.90
2018-05-07T05:38:33.367Z,93.10
2018-05-07T05:40:34.302Z,92.20
2018-05-07T05:42:35.232Z,91.70
2018-05-07T05:44:36.913Z,91.40
2018-05-07T05:46:37.848Z,91.40
2018-05-07T05:48:38.810Z,90.00
2018-05-07T05:50:39.745Z,90.50
2018-05-07T05:52:40.681Z,86.60
2018-05-07T05:54:42.358Z,90.80
2018-05-07T05:56:43.277Z,90.80
2018-05-07T05:58:44.965Z,88.30
2018-05-07T06:00:45.899Z,88.30
2018-05-07T06:02:47.570Z,87.00
2018-05-07T06:04:48.501Z,87.00
2018-05-07T06:06:50.190Z,85.90
2018-05-07T06:08:51.204Z,86.00
2018-05-07T06:10:52.872Z,84.70
2018-05-07T06:12:54.545Z,82.70
2018-05-07T06:14:55.615Z,82.80
2018-05-07T06:16:56.437Z,81.80
2018-05-07T06:18:57.398Z,82.10
2018-05-07T06:20:58.353Z,78.70
2018-05-07T06:22:59.282Z,80.30
2018-05-07T06:25:00.211Z,83.30
2018-05-07T06:27:01.873Z,78.30
2018-05-07T06:29:03.533Z,71.20
2018-05-07T06:31:05.214Z,65.00
2018-05-07T06:33:06.826Z,65.20
2018-05-07T06:35:07.784Z,67.40
2018-05-07T06:37:08.761Z,64.20
2018-05-07T06:39:09.686Z,70.30
2018-05-07T06:41:11.384Z,68.10
2018-05-07T06:43:12.314Z,68.40
2018-05-07T06:45:13.257Z,69.50
2018-05-07T06:47:14.195Z,65.00
2018-05-07T06:49:16.075Z,60.90
2018-05-07T06:51:17.018Z,60.60
2018-05-07T06:53:17.941Z,65.30
2018-05-07T06:55:19.620Z,55.20
2018-05-07T06:57:20.563Z,55.40
2018-05-07T06:59:22.245Z,53.70
2018-05-07T07:01:23.167Z,52.50
2018-05-07T07:03:24.841Z,58.90
2018-05-07T07:05:25.791Z,58.90
2018-05-07T07:07:26.809Z,52.00
2018-05-07T07:09:27.641Z,56.40
2018-05-07T07:11:28.582Z,51.60
2018-05-07T07:13:29.524Z,45.20
2018-05-07T07:15:30.462Z,45.70
2018-05-07T07:17:31.394Z,45.00
2018-05-07T07:19:32.334Z,48.30
2018-05-07T07:21:33.276Z,44.50
2018-05-07T07:23:34.203Z,42.70
2018-05-07T07:25:35.133Z,44.90
2018-05-07T07:27:36.785Z,40.30
2018-05-07T07:29:38.453Z,40.70
2018-05-07T07:31:40.122Z,38.50
2018-05-07T07:33:41.109Z,38.10
2018-05-07T07:35:42.721Z,41.60
2018-05-07T07:37:44.406Z,44.80
2018-05-07T07:39:45.325Z,44.80
2018-05-07T07:41:46.270Z,38.50
2018-05-07T07:43:47.947Z,40.40
2018-05-07T07:45:48.892Z,40.20
2018-05-07T07:47:49.830Z,39.50
2018-05-07T07:49:51.503Z,33.40
2018-05-07T07:51:52.445Z,33.60
2018-05-07T07:53:53.433Z,34.90
2018-05-07T07:55:54.347Z,32.50
2018-05-07T07:57:55.288Z,30.30
2018-05-07T07:59:56.231Z,32.10
2018-05-07T08:01:57.171Z,33.30
2018-05-07T08:03:58.098Z,32.30
2018-05-07T08:05:59.034Z,30.90
2018-05-07T08:07:59.970Z,33.20
2018-05-07T08:10:00.911Z,32.90
2018-05-07T08:12:01.900Z,30.80
2018-05-07T08:14:02.794Z,29.10
2018-05-07T08:16:03.729Z,30.90
2018-05-07T08:18:04.681Z,33.10
2018-05-07T08:20:05.605Z,29.30
2018-05-07T08:22:06.544Z,31.90
2018-05-07T08:24:07.506Z,30.90
2018-05-07T08:26:08.448Z,28.80
2018-05-07T08:28:09.378Z,31.10
2018-05-07T08:30:11.053Z,28.20
2018-05-07T08:32:12.729Z,27.10
2018-05-07T08:34:13.649Z,26.80
2018-05-07T08:36:14.574Z,27.60
2018-05-07T08:38:16.237Z,27.50
2018-05-07T08:40:17.173Z,27.70
2018-05-07T08:42:18.897Z,28.20
2018-05-07T08:44:19.771Z,28.20
2018-05-07T08:46:20.700Z,28.80
2018-05-07T08:48:21.637Z,25.90
2018-05-07T08:50:22.570Z,29.20
2018-05-07T08:52:23.505Z,28.10
2018-05-07T08:54:24.500Z,33.50
2018-05-07T08:56:25.433Z,26.50
2018-05-07T08:58:26.363Z,29.70
2018-05-07T09:00:27.306Z,24.80
2018-05-07T09:02:28.254Z,26.20
2018-05-07T09:04:29.965Z,27.90
2018-05-07T09:06:30.906Z,28.30
2018-05-07T09:08:32.582Z,24.40
2018-05-07T09:10:33.517Z,24.20
2018-05-07T09:12:35.192Z,26.00
2018-05-07T09:14:36.117Z,25.90
2018-05-07T09:16:37.810Z,23.10
2018-05-07T09:18:38.743Z,23.10
2018-05-07T09:20:39.678Z,25.20
2018-05-07T09:22:40.610Z,23.20
2018-05-07T09:24:42.312Z,23.70
2018-05-07T09:26:43.982Z,26.20
2018-05-07T09:28:44.905Z,26.40
2018-05-07T09:30:45.896Z,23.30
2018-05-07T09:32:46.835Z,24.20
2018-05-07T09:34:47.785Z,25.60
2018-05-07T09:36:48.710Z,26.30
2018-05-07T09:38:50.376Z,26.00
2018-05-07T09:40:51.323Z,25.30
2018-05-07T09:42:52.354Z,25.00
2018-05-07T09:44:53.222Z,24.90
2018-05-07T09:46:54.172Z,24.20
2018-05-07T09:48:55.933Z,23.00
2018-05-07T09:50:56.890Z,23.00
2018-05-07T09:52:57.827Z,24.40
2018-05-07T09:54:58.758Z,20.50
2018-05-07T09:56:59.716Z,20.70
2018-05-07T09:59:01.382Z,25.40
2018-05-07T10:01:02.343Z,24.50
2018-05-07T10:03:03.285Z,20.60
2018-05-07T10:05:04.218Z,19.30
2018-05-07T10:07:05.157Z,19.70
2018-05-07T10:09:06.095Z,22.70
2018-05-07T10:11:07.025Z,20.90
2018-05-07T10:13:07.955Z,22.70
2018-05-07T10:15:08.918Z,19.60
2018-05-07T10:17:09.915Z,22.80
2018-05-07T10:19:10.814Z,20.60
2018-05-07T10:21:11.741Z,20.10
2018-05-07T10:23:12.677Z,20.60
2018-05-07T10:25:13.607Z,20.70
2018-05-07T10:27:15.281Z,18.40
2018-05-07T10:29:16.958Z,18.80
2018-05-07T10:31:17.910Z,18.90
2018-05-07T10:33:18.843Z,20.10
2018-05-07T10:35:19.848Z,19.70
2018-05-07T10:37:20.738Z,19.00
2018-05-07T10:39:21.674Z,21.60
2018-05-07T10:41:23.345Z,18.80
2018-05-07T10:43:24.290Z,18.70
2018-05-07T10:45:25.214Z,22.40
2018-05-07T10:47:26.897Z,21.60
2018-05-07T10:49:27.826Z,21.50
2018-05-07T10:51:29.498Z,19.90
2018-05-07T10:53:31.166Z,21.50
2018-05-07T10:55:32.097Z,21.30
2018-05-07T10:57:33.775Z,20.00
2018-05-07T10:59:34.714Z,20.00
2018-05-07T11:01:35.705Z,18.40
2018-05-07T11:03:37.342Z,21.70
2018-05-07T11:05:38.271Z,21.70
2018-05-07T11:07:39.211Z,17.50
2018-05-07T11:09:40.874Z,19.80
2018-05-07T11:11:41.810Z,19.70
2018-05-07T11:13:43.484Z,20.30
2018-05-07T11:15:44.422Z,20.20
2018-05-07T11:17:45.349Z,17.10
2018-05-07T11:19:46.356Z,16.90
2018-05-07T11:21:47.230Z,18.40
2018-05-07T11:23:48.173Z,16.80
2018-05-07T11:25:49.118Z,15.50
2018-05-07T11:27:50.054Z,14.90
2018-05-07T11:29:50.995Z,15.70
2018-05-07T11:31:51.948Z,15.30
2018-05-07T11:33:52.874Z,14.80
2018-05-07T11:35:53.823Z,15.80
2018-05-07T11:37:54.818Z,13.50
2018-05-07T11:39:55.747Z,16.40
2018-05-07T11:41:56.686Z,15.90
2018-05-07T11:43:57.609Z,14.30
2018-05-07T11:45:58.549Z,13.70
2018-05-07T11:47:59.490Z,17.40
2018-05-07T11:50:00.474Z,16.60
2018-05-07T11:52:01.423Z,15.60
2018-05-07T11:54:03.098Z,15.40
2018-05-07T11:56:04.759Z,12.50
2018-05-07T11:58:06.467Z,14.50
2018-05-07T12:00:07.427Z,14.40
2018-05-07T12:02:08.361Z,14.90
2018-05-07T12:04:09.285Z,12.70
2018-05-07T12:06:10.209Z,14.50
2018-05-07T12:08:11.895Z,14.40
2018-05-07T12:10:12.828Z,14.20
2018-05-07T12:12:13.766Z,13.70
2018-05-07T12:14:15.457Z,13.70
2018-05-07T12:16:16.383Z,13.90
2018-05-07T12:18:17.344Z,13.10
2018-05-07T12:20:18.267Z,12.80
2018-05-07T12:22:19.942Z,13.30
2018-05-07T12:24:20.877Z,13.10
2018-05-07T12:26:21.817Z,13.30
2018-05-07T12:28:23.492Z,11.50
2018-05-07T12:30:24.442Z,11.50
2018-05-07T12:32:25.386Z,15.00
2018-05-07T12:34:26.313Z,15.00
2018-05-07T12:36:27.987Z,13.20
2018-05-07T12:38:28.925Z,13.50
2018-05-07T12:40:30.590Z,15.00
2018-05-07T12:42:32.295Z,12.10
2018-05-07T12:44:33.229Z,12.00
2018-05-07T12:46:34.165Z,14.90
2018-05-07T12:48:35.106Z,13.40
2018-05-07T12:50:36.046Z,14.10
2018-05-07T12:52:37.072Z,14.10
2018-05-07T12:54:37.917Z,13.00
2018-05-07T12:56:39.602Z,13.10
2018-05-07T12:58:40.538Z,13.30
2018-05-07T13:00:41.491Z,13.20
2018-05-07T13:02:42.434Z,15.50
2018-05-07T13:04:43.378Z,16.10
2018-05-07T13:06:44.370Z,12.20
2018-05-07T13:08:45.310Z,12.10
2018-05-07T13:10:46.250Z,13.10
2018-05-07T13:12:47.182Z,15.30
2018-05-07T13:14:48.109Z,14.30
2018-05-07T13:16:49.069Z,14.80
2018-05-07T13:18:50.002Z,13.40
2018-05-07T13:20:50.950Z,15.60
2018-05-07T13:22:51.897Z,13.80
2018-05-07T13:24:52.842Z,14.90
2018-05-07T13:26:53.758Z,15.60
2018-05-07T13:28:55.447Z,14.20
2018-05-07T13:30:56.370Z,14.10
2018-05-07T13:32:58.057Z,14.60
2018-05-07T13:34:58.986Z,15.20
2018-05-07T13:37:00.680Z,15.70
2018-05-07T13:39:01.611Z,15.90
2018-05-07T13:41:02.587Z,16.00
2018-05-07T13:43:03.559Z,17.10
2018-05-07T13:45:04.486Z,15.00
2018-05-07T13:47:05.441Z,15.70
2018-05-07T13:49:06.375Z,19.20
2018-05-07T13:51:07.327Z,15.90
2018-05-07T13:53:08.259Z,15.90
2018-05-07T13:55:09.214Z,16.00
2018-05-07T13:57:10.155Z,15.70
2018-05-07T13:59:11.121Z,14.60
2018-05-07T14:01:12.057Z,17.00
2018-05-07T14:03:13.013Z,15.60
2018-05-07T14:05:13.950Z,16.10
2018-05-07T14:07:14.881Z,15.80
2018-05-07T14:09:15.825Z,14.70
2018-05-07T14:11:16.754Z,14.50
2018-05-07T14:13:17.682Z,17.50
2018-05-07T14:15:18.602Z,16.50
2018-05-07T14:17:20.271Z,18.50
2018-05-07T14:19:21.937Z,13.80
2018-05-07T14:21:23.666Z,13.60
2018-05-07T14:23:24.621Z,13.80
2018-05-07T14:25:25.557Z,14.50
2018-05-07T14:27:26.500Z,14.70
2018-05-07T14:29:27.450Z,15.70
2018-05-07T14:31:28.385Z,15.80
2018-05-07T14:33:29.466Z,13.70
2018-05-07T14:35:30.327Z,15.70
2018-05-07T14:37:31.292Z,13.90
2018-05-07T14:39:32.217Z,13.90
2018-05-07T14:41:33.897Z,14.40
2018-05-07T14:43:34.835Z,14.30
2018-05-07T14:45:36.595Z,15.00
2018-05-07T14:47:37.596Z,14.60
2018-05-07T14:49:38.575Z,15.50
2018-05-07T14:51:39.479Z,14.90
2018-05-07T14:53:40.444Z,13.30
2018-05-07T14:55:41.455Z,13.80
2018-05-07T14:57:42.361Z,15.50
2018-05-07T14:59:44.083Z,14.10
2018-05-07T15:01:45.752Z,15.20
2018-05-07T15:03:46.745Z,15.20
2018-05-07T15:05:48.258Z,15.10
2018-05-07T15:07:49.961Z,17.90
2018-05-07T15:09:50.917Z,17.60
2018-05-07T15:11:52.614Z,14.20
2018-05-07T15:14:05.846Z,13.70
2018-05-07T15:16:06.871Z,15.00
2018-05-07T15:18:07.809Z,16.50
2018-05-07T15:20:09.655Z,16.30
2018-05-07T15:22:10.592Z,16.30
2018-05-07T15:24:11.541Z,16.90
2018-05-07T15:26:12.481Z,18.90
2018-05-07T15:28:13.420Z,17.50
2018-05-07T15:30:14.398Z,16.10
2018-05-07T15:32:15.317Z,15.40
2018-05-07T15:34:16.274Z,16.90
2018-05-07T15:36:17.237Z,17.40
2018-05-07T15:38:18.168Z,15.80
2018-05-07T15:40:19.114Z,15.90
2018-05-07T15:42:21.069Z,15.00
2018-05-07T15:44:22.026Z,16.10
2018-05-07T15:46:22.968Z,17.10
2018-05-07T15:48:23.897Z,17.30
2018-05-07T15:50:24.831Z,14.90
2018-05-07T15:52:25.791Z,14.80
2018-05-07T15:54:26.754Z,16.00
2018-05-07T15:56:27.701Z,14.80
2018-05-07T15:58:28.642Z,15.80
2018-05-07T16:00:29.591Z,14.80
2018-05-07T16:02:30.538Z,15.90
2018-05-07T16:04:32.917Z,14.90
2018-05-07T16:06:33.862Z,16.90
2018-05-07T16:08:34.817Z,15.50
2018-05-07T16:10:35.763Z,14.80
2018-05-07T16:12:36.714Z,17.60
2018-05-07T16:14:37.690Z,15.20
2018-05-07T16:16:38.641Z,15.30
2018-05-07T16:18:39.575Z,15.50
2018-05-07T16:20:40.498Z,17.70
2018-05-07T16:22:42.173Z,16.20
2018-05-07T16:24:43.127Z,15.90
2018-05-07T16:26:44.073Z,16.70
2018-05-07T16:28:45.029Z,18.80
2018-05-07T16:30:45.979Z,16.90
2018-05-07T16:32:46.902Z,16.60
2018-05-07T16:34:47.844Z,17.00
2018-05-07T16:36:49.543Z,18.10
2018-05-07T16:38:50.515Z,18.00
2018-05-07T16:40:51.461Z,17.30
2018-05-07T16:42:52.459Z,19.20
2018-05-07T16:44:53.374Z,18.40
2018-05-07T16:46:55.051Z,17.50
2018-05-07T16:48:57.823Z,16.10
2018-05-07T16:50:58.754Z,16.00
2018-05-07T16:52:59.704Z,17.80
2018-05-07T16:55:00.679Z,17.40
2018-05-07T16:57:02.378Z,18.30
2018-05-07T16:59:03.335Z,18.20
2018-05-07T17:01:04.294Z,18.00
2018-05-07T17:03:05.298Z,18.20
2018-05-07T17:05:06.214Z,17.60
2018-05-07T17:07:07.189Z,18.10
2018-05-07T17:09:08.126Z,20.00
2018-05-07T17:11:09.816Z,18.60
2018-05-07T17:13:10.767Z,18.50
2018-05-07T17:15:11.835Z,19.20
2018-05-07T17:17:12.773Z,18.20
2018-05-07T17:19:14.106Z,17.30
2018-05-07T17:21:15.136Z,18.20
2018-05-07T17:23:16.026Z,19.30
2018-05-07T17:25:16.972Z,19.00
2018-05-07T17:27:17.949Z,21.40
2018-05-07T17:29:18.871Z,19.30
2018-05-07T17:31:19.802Z,21.00
2018-05-07T17:33:20.783Z,19.60
2018-05-07T17:35:21.732Z,20.10
2018-05-07T17:37:22.661Z,21.30
2018-05-07T17:39:23.629Z,21.00
2018-05-07T17:41:25.382Z,22.80
2018-05-07T17:43:26.258Z,22.80
2018-05-07T17:45:36.466Z,21.70
2018-05-07T17:47:49.850Z,20.30
2018-05-07T17:49:51.540Z,22.50
2018-05-07T17:51:52.593Z,22.40
2018-05-07T17:53:53.540Z,21.70
2018-05-07T17:55:54.486Z,22.50
2018-05-07T17:57:55.418Z,22.30
2018-05-07T17:59:56.390Z,21.50
2018-05-07T18:01:57.341Z,23.20
2018-05-07T18:03:59.033Z,21.90
2018-05-07T18:05:59.986Z,24.70
2018-05-07T18:08:01.691Z,24.00
2018-05-07T18:10:02.738Z,23.60
2018-05-07T18:12:03.677Z,23.00
2018-05-07T18:14:04.666Z,23.70
2018-05-07T18:16:05.626Z,23.80
2018-05-07T18:18:06.604Z,24.40
2018-05-07T18:20:07.572Z,23.70
2018-05-07T18:22:08.529Z,24.50
2018-05-07T18:24:09.515Z,24.60
2018-05-07T18:26:11.253Z,25.50
2018-05-07T18:28:12.206Z,25.10
2018-05-07T18:30:13.234Z,25.10
2018-05-07T18:32:14.238Z,26.20
2018-05-07T18:34:15.256Z,27.10
2018-05-07T18:36:18.197Z,25.30
2018-05-07T18:38:19.191Z,26.70
2018-05-07T18:40:20.147Z,26.90
2018-05-07T18:42:21.112Z,26.40
2018-05-07T18:44:22.087Z,26.70
2018-05-07T18:46:23.051Z,26.70
2018-05-07T18:48:24.609Z,27.00
2018-05-07T18:50:28.050Z,28.40
2018-05-07T18:52:29.779Z,28.10
2018-05-07T18:54:30.739Z,28.10
2018-05-07T18:56:32.864Z,27.10
2018-05-07T18:58:33.931Z,25.90
2018-05-07T19:00:34.987Z,28.50
2018-05-07T19:02:35.932Z,27.30
2018-05-07T19:04:36.895Z,28.20
2018-05-07T19:06:37.838Z,27.50
2018-05-07T19:08:39.020Z,29.40
2018-05-07T19:10:40.779Z,28.40
2018-05-07T19:12:45.282Z,28.30
2018-05-07T19:14:46.238Z,28.50
2018-05-07T19:16:47.201Z,32.10
2018-05-07T19:18:48.171Z,32.50
2018-05-07T19:20:50.847Z,34.00
2018-05-07T19:22:52.536Z,32.80
2018-05-07T19:24:53.525Z,32.80
2018-05-07T19:26:54.468Z,31.60
2018-05-07T19:28:55.535Z,33.80
2018-05-07T19:30:56.496Z,33.00
2018-05-07T19:32:58.218Z,35.70
2018-05-07T19:34:59.176Z,36.40
2018-05-07T19:37:00.167Z,33.40
2018-05-07T19:39:01.915Z,37.40
2018-05-07T19:41:03.606Z,38.80
2018-05-07T19:43:04.562Z,38.50
2018-05-07T19:45:05.520Z,37.50
2018-05-07T19:47:06.483Z,40.30
2018-05-07T19:49:07.457Z,41.30
2018-05-07T19:51:08.427Z,45.00
2018-05-07T19:53:09.399Z,46.30
2018-05-07T19:55:10.366Z,48.00
2018-05-07T19:57:11.314Z,46.50
2018-05-07T19:59:12.306Z,47.00
2018-05-07T20:01:13.301Z,47.70
2018-05-07T20:03:14.234Z,46.50
2018-05-07T20:05:15.781Z,45.30
2018-05-07T20:07:16.767Z,45.50
2018-05-07T20:09:17.706Z,47.70
2018-05-07T20:11:18.683Z,48.00
2018-05-07T20:13:20.360Z,45.60
2018-05-07T20:15:21.342Z,45.60
2018-05-07T20:17:22.342Z,45.70
2018-05-07T20:19:24.036Z,44.50
2018-05-07T20:21:24.990Z,44.50
2018-05-07T20:23:25.965Z,45.10
2018-05-07T20:25:26.970Z,44.20
2018-05-07T20:27:27.966Z,45.80
2018-05-07T20:29:28.943Z,44.00
2018-05-07T20:31:30.627Z,42.30
2018-05-07T20:33:31.579Z,42.30
2018-05-07T20:35:32.562Z,46.60
2018-05-07T20:37:33.593Z,45.70
2018-05-07T20:39:34.499Z,45.60
2018-05-07T20:41:35.447Z,45.60
2018-05-07T20:43:36.426Z,51.10
2018-05-07T20:45:37.402Z,50.00
2018-05-07T20:47:38.342Z,46.10
2018-05-07T20:49:39.432Z,46.00
2018-05-07T20:51:41.356Z,46.00
2018-05-07T20:53:42.322Z,46.00
2018-05-07T20:55:43.309Z,47.30
2018-05-07T20:57:44.324Z,47.40
2018-05-07T20:59:46.147Z,47.00
2018-05-07T21:01:47.086Z,46.90
2018-05-07T21:03:48.042Z,47.50
2018-05-07T21:05:49.032Z,46.40
2018-05-07T21:07:50.714Z,48.30
2018-05-07T21:09:51.672Z,48.30
2018-05-07T21:11:52.761Z,46.70
2018-05-07T21:13:53.779Z,46.90
2018-05-07T21:15:54.784Z,51.60
2018-05-07T21:17:56.502Z,47.40
2018-05-07T21:19:57.438Z,47.50
2018-05-07T21:21:58.385Z,48.00
2018-05-07T21:23:59.365Z,46.70
2018-05-07T21:26:00.382Z,47.00
2018-05-07T21:28:01.316Z,47.80
2018-05-07T21:30:02.296Z,47.20
2018-05-07T21:32:03.274Z,47.80
2018-05-07T21:34:04.947Z,46.80
2018-05-07T21:36:05.901Z,46.80
2018-05-07T21:38:06.882Z,47.40
2018-05-07T21:40:08.153Z,48.00
2018-05-07T21:42:09.115Z,52.50
2018-05-07T21:44:10.059Z,50.30
2018-05-07T21:46:11.885Z,49.70
2018-05-07T21:48:12.842Z,49.00
2018-05-07T21:50:13.841Z,50.20
2018-05-07T21:52:14.777Z,51.80
2018-05-07T21:54:16.474Z,49.20
2018-05-07T21:56:17.441Z,49.30
2018-05-07T21:58:18.397Z,48.90
2018-05-07T22:00:19.369Z,48.00
2018-05-07T22:02:21.058Z,54.00
2018-05-07T22:04:22.006Z,54.00
2018-05-07T22:06:22.960Z,52.60
2018-05-07T22:08:23.902Z,55.80
2018-05-07T22:10:24.889Z,54.90
2018-05-07T22:12:25.837Z,56.30
2018-05-07T22:14:26.742Z,55.60
2018-05-07T22:16:27.687Z,54.90
2018-05-07T22:18:28.674Z,55.10
2018-05-07T22:20:29.614Z,54.90
2018-05-07T22:22:30.557Z,54.80
2018-05-07T22:24:31.543Z,54.80
2018-05-07T22:26:33.243Z,52.70
2018-05-07T22:28:34.197Z,52.70
2018-05-07T22:30:35.147Z,53.40
2018-05-07T22:32:36.078Z,54.30
2018-05-07T22:34:37.056Z,54.70
2018-05-07T22:36:38.020Z,56.50
2018-05-07T22:38:38.967Z,57.10
2018-05-07T22:40:39.930Z,57.20
2018-05-07T22:42:41.619Z,57.80
2018-05-07T22:44:42.591Z,57.80
2018-05-07T22:46:43.530Z,58.40
2018-05-07T22:48:44.491Z,58.60
2018-05-07T22:50:45.457Z,59.60
2018-05-07T22:52:46.395Z,60.00
2018-05-07T22:54:47.337Z,65.30
2018-05-07T22:56:48.319Z,63.10
2018-05-07T22:58:49.283Z,63.00
2018-05-07T23:00:50.271Z,64.10
2018-05-07T23:02:51.186Z,65.50
2018-05-07T23:04:52.130Z,66.30
2018-05-07T23:06:53.090Z,67.60
2018-05-07T23:08:54.062Z,65.30
2018-05-07T23:10:55.011Z,62.80
2018-05-07T23:12:56.003Z,63.40
2018-05-07T23:14:56.981Z,63.00
2018-05-07T23:16:57.976Z,64.60
2018-05-07T23:18:59.649Z,65.70
2018-05-07T23:21:00.608Z,65.50
2018-05-07T23:23:01.586Z,64.70
2018-05-07T23:25:02.523Z,67.00
2018-05-07T23:27:03.481Z,63.50
2018-05-07T23:29:04.458Z,63.70
2018-05-07T23:31:06.147Z,62.60
2018-05-07T23:33:07.081Z,62.50
2018-05-07T23:35:08.748Z,62.30
2018-05-07T23:37:09.721Z,62.30
2018-05-07T23:39:10.723Z,64.10
2018-05-07T23:41:11.657Z,66.10
2018-05-07T23:43:12.597Z,63.50
2018-05-07T23:45:13.559Z,65.80
2018-05-07T23:47:15.248Z,65.40
2018-05-07T23:49:16.184Z,65.30
2018-05-07T23:51:17.150Z,65.20
2018-05-07T23:53:18.093Z,66.10
2018-05-07T23:55:19.021Z,67.40
2018-05-07T23:57:19.970Z,66.10
2018-05-07T23:59:20.929Z,67.40
